sensor_id;sensor_type;location;lat;lon;timestamp;temperature;humidity
22383;DHT22;11359;45.802;13.530;2023-02-05T00:02:18;16.00;26.00
22383;DHT22;11359;45.802;13.530;2023-02-05T00:04:44;16.00;26.10
22383;DHT22;11359;45.802;13.530;2023-02-05T00:07:10;15.90;26.20
22383;DHT22;11359;45.802;13.530;2023-02-05T00:09:35;15.90;26.30
22383;DHT22;11359;45.802;13.530;2023-02-05T00:12:01;15.80;26.30
22383;DHT22;11359;45.802;13.530;2023-02-05T00:14:27;15.80;26.40
22383;DHT22;11359;45.802;13.530;2023-02-05T00:16:53;15.70;26.40
22383;DHT22;11359;45.802;13.530;2023-02-05T00:19:18;15.70;26.50
22383;DHT22;11359;45.802;13.530;2023-02-05T00:21:44;15.70;26.50
22383;DHT22;11359;45.802;13.530;2023-02-05T00:24:11;15.60;26.50
22383;DHT22;11359;45.802;13.530;2023-02-05T00:26:37;15.60;26.60
22383;DHT22;11359;45.802;13.530;2023-02-05T00:29:03;15.50;26.60
22383;DHT22;11359;45.802;13.530;2023-02-05T00:31:29;15.50;26.60
22383;DHT22;11359;45.802;13.530;2023-02-05T00:33:55;15.40;26.60
22383;DHT22;11359;45.802;13.530;2023-02-05T00:36:22;15.40;26.70
22383;DHT22;11359;45.802;13.530;2023-02-05T00:38:49;15.40;26.70
22383;DHT22;11359;45.802;13.530;2023-02-05T00:41:15;15.30;26.70
22383;DHT22;11359;45.802;13.530;2023-02-05T00:43:45;15.30;26.80
22383;DHT22;11359;45.802;13.530;2023-02-05T00:46:12;15.20;26.80
22383;DHT22;11359;45.802;13.530;2023-02-05T00:48:42;15.20;26.90
22383;DHT22;11359;45.802;13.530;2023-02-05T00:51:08;15.10;26.90
22383;DHT22;11359;45.802;13.530;2023-02-05T00:53:34;15.10;26.90
22383;DHT22;11359;45.802;13.530;2023-02-05T00:56:00;15.00;27.00
22383;DHT22;11359;45.802;13.530;2023-02-05T00:58:26;15.00;27.00
22383;DHT22;11359;45.802;13.530;2023-02-05T01:00:52;15.00;27.00
22383;DHT22;11359;45.802;13.530;2023-02-05T01:03:19;14.90;27.00
22383;DHT22;11359;45.802;13.530;2023-02-05T01:05:45;14.80;27.00
22383;DHT22;11359;45.802;13.530;2023-02-05T01:08:12;14.80;27.10
22383;DHT22;11359;45.802;13.530;2023-02-05T01:10:43;14.80;27.20
22383;DHT22;11359;45.802;13.530;2023-02-05T01:13:09;14.70;27.20
22383;DHT22;11359;45.802;13.530;2023-02-05T01:15:36;14.70;27.20
22383;DHT22;11359;45.802;13.530;2023-02-05T01:18:01;14.60;27.20
22383;DHT22;11359;45.802;13.530;2023-02-05T01:20:27;14.60;27.30
22383;DHT22;11359;45.802;13.530;2023-02-05T01:22:54;14.50;27.30
22383;DHT22;11359;45.802;13.530;2023-02-05T01:25:19;14.50;27.30
22383;DHT22;11359;45.802;13.530;2023-02-05T01:27:45;14.40;27.30
22383;DHT22;11359;45.802;13.530;2023-02-05T01:30:11;14.40;27.40
22383;DHT22;11359;45.802;13.530;2023-02-05T01:32:37;14.40;27.40
22383;DHT22;11359;45.802;13.530;2023-02-05T01:35:05;14.30;27.40
22383;DHT22;11359;45.802;13.530;2023-02-05T01:37:30;14.30;27.40
22383;DHT22;11359;45.802;13.530;2023-02-05T01:39:56;14.20;27.40
22383;DHT22;11359;45.802;13.530;2023-02-05T01:42:24;14.10;27.40
22383;DHT22;11359;45.802;13.530;2023-02-05T01:47:58;14.10;27.50
22383;DHT22;11359;45.802;13.530;2023-02-05T01:52:51;13.90;27.50
22383;DHT22;11359;45.802;13.530;2023-02-05T01:55:18;13.90;27.70
22383;DHT22;11359;45.802;13.530;2023-02-05T01:57:48;13.80;27.70
22383;DHT22;11359;45.802;13.530;2023-02-05T02:00:15;13.80;27.70
22383;DHT22;11359;45.802;13.530;2023-02-05T02:02:41;13.70;27.70
22383;DHT22;11359;45.802;13.530;2023-02-05T02:05:09;13.70;27.80
22383;DHT22;11359;45.802;13.530;2023-02-05T02:07:35;13.60;27.80
22383;DHT22;11359;45.802;13.530;2023-02-05T02:10:02;13.60;28.40
22383;DHT22;11359;45.802;13.530;2023-02-05T02:12:31;13.60;27.90
22383;DHT22;11359;45.802;13.530;2023-02-05T02:15:00;13.50;27.80
22383;DHT22;11359;45.802;13.530;2023-02-05T02:17:29;13.50;27.80
22383;DHT22;11359;45.802;13.530;2023-02-05T02:20:12;13.40;27.80
22383;DHT22;11359;45.802;13.530;2023-02-05T02:30:34;13.20;28.00
22383;DHT22;11359;45.802;13.530;2023-02-05T02:33:28;13.20;28.10
22383;DHT22;11359;45.802;13.530;2023-02-05T02:36:01;13.10;28.20
22383;DHT22;11359;45.802;13.530;2023-02-05T02:38:45;13.00;28.20
22383;DHT22;11359;45.802;13.530;2023-02-05T02:41:18;13.00;28.30
22383;DHT22;11359;45.802;13.530;2023-02-05T02:43:57;13.00;28.40
22383;DHT22;11359;45.802;13.530;2023-02-05T02:46:31;12.90;28.40
22383;DHT22;11359;45.802;13.530;2023-02-05T02:49:03;12.90;28.40
22383;DHT22;11359;45.802;13.530;2023-02-05T02:51:31;12.80;28.50
22383;DHT22;11359;45.802;13.530;2023-02-05T02:53:59;12.80;28.50
22383;DHT22;11359;45.802;13.530;2023-02-05T02:56:30;12.70;28.50
22383;DHT22;11359;45.802;13.530;2023-02-05T02:59:19;12.70;28.60
22383;DHT22;11359;45.802;13.530;2023-02-05T03:01:49;12.60;28.60
22383;DHT22;11359;45.802;13.530;2023-02-05T03:04:21;12.60;28.70
22383;DHT22;11359;45.802;13.530;2023-02-05T03:06:51;12.50;28.70
22383;DHT22;11359;45.802;13.530;2023-02-05T03:09:31;12.50;28.80
22383;DHT22;11359;45.802;13.530;2023-02-05T03:11:58;12.50;28.80
22383;DHT22;11359;45.802;13.530;2023-02-05T03:14:24;12.40;28.80
22383;DHT22;11359;45.802;13.530;2023-02-05T03:16:50;12.40;28.90
22383;DHT22;11359;45.802;13.530;2023-02-05T03:19:16;12.30;28.90
22383;DHT22;11359;45.802;13.530;2023-02-05T03:21:46;12.30;28.90
22383;DHT22;11359;45.802;13.530;2023-02-05T03:24:13;12.20;29.00
22383;DHT22;11359;45.802;13.530;2023-02-05T03:26:39;12.20;29.10
22383;DHT22;11359;45.802;13.530;2023-02-05T03:29:07;12.20;29.20
22383;DHT22;11359;45.802;13.530;2023-02-05T03:43:05;11.90;29.40
22383;DHT22;11359;45.802;13.530;2023-02-05T03:45:53;11.90;29.40
22383;DHT22;11359;45.802;13.530;2023-02-05T03:51:35;11.80;29.50
22383;DHT22;11359;45.802;13.530;2023-02-05T03:54:15;11.80;29.60
22383;DHT22;11359;45.802;13.530;2023-02-05T03:57:17;11.70;29.60
22383;DHT22;11359;45.802;13.530;2023-02-05T03:59:38;11.70;29.70
22383;DHT22;11359;45.802;13.530;2023-02-05T04:02:04;11.70;29.70
22383;DHT22;11359;45.802;13.530;2023-02-05T04:04:30;11.60;29.70
22383;DHT22;11359;45.802;13.530;2023-02-05T04:06:56;11.60;29.80
22383;DHT22;11359;45.802;13.530;2023-02-05T04:09:22;11.60;29.80
22383;DHT22;11359;45.802;13.530;2023-02-05T04:11:47;11.50;29.70
22383;DHT22;11359;45.802;13.530;2023-02-05T04:14:13;11.50;29.80
22383;DHT22;11359;45.802;13.530;2023-02-05T04:16:39;11.50;29.80
22383;DHT22;11359;45.802;13.530;2023-02-05T04:19:05;11.50;29.80
22383;DHT22;11359;45.802;13.530;2023-02-05T04:21:31;11.50;29.80
22383;DHT22;11359;45.802;13.530;2023-02-05T04:23:57;11.40;29.80
22383;DHT22;11359;45.802;13.530;2023-02-05T04:26:23;11.40;29.90
22383;DHT22;11359;45.802;13.530;2023-02-05T04:28:49;11.40;29.90
22383;DHT22;11359;45.802;13.530;2023-02-05T04:31:15;11.40;29.90
22383;DHT22;11359;45.802;13.530;2023-02-05T04:33:40;11.40;29.90
22383;DHT22;11359;45.802;13.530;2023-02-05T04:36:07;11.40;29.90
22383;DHT22;11359;45.802;13.530;2023-02-05T04:38:33;11.30;29.80
22383;DHT22;11359;45.802;13.530;2023-02-05T04:40:59;11.30;29.80
22383;DHT22;11359;45.802;13.530;2023-02-05T04:43:25;11.30;29.80
22383;DHT22;11359;45.802;13.530;2023-02-05T04:45:50;11.30;29.80
22383;DHT22;11359;45.802;13.530;2023-02-05T04:48:16;11.20;29.80
22383;DHT22;11359;45.802;13.530;2023-02-05T04:50:42;11.20;29.80
22383;DHT22;11359;45.802;13.530;2023-02-05T04:53:08;11.20;29.80
22383;DHT22;11359;45.802;13.530;2023-02-05T04:55:34;11.20;29.90
22383;DHT22;11359;45.802;13.530;2023-02-05T04:57:59;11.10;29.90
22383;DHT22;11359;45.802;13.530;2023-02-05T05:00:25;11.10;29.90
22383;DHT22;11359;45.802;13.530;2023-02-05T05:02:56;11.10;29.90
22383;DHT22;11359;45.802;13.530;2023-02-05T05:05:21;11.10;29.90
22383;DHT22;11359;45.802;13.530;2023-02-05T05:07:47;11.10;29.90
22383;DHT22;11359;45.802;13.530;2023-02-05T05:10:13;11.00;29.90
22383;DHT22;11359;45.802;13.530;2023-02-05T05:12:39;11.00;29.90
22383;DHT22;11359;45.802;13.530;2023-02-05T05:15:05;11.00;30.00
22383;DHT22;11359;45.802;13.530;2023-02-05T05:17:32;11.00;30.00
22383;DHT22;11359;45.802;13.530;2023-02-05T05:19:58;11.10;30.00
22383;DHT22;11359;45.802;13.530;2023-02-05T05:22:23;11.10;30.00
22383;DHT22;11359;45.802;13.530;2023-02-05T05:24:50;11.10;30.00
22383;DHT22;11359;45.802;13.530;2023-02-05T05:27:16;11.10;30.00
22383;DHT22;11359;45.802;13.530;2023-02-05T05:29:46;11.10;30.00
22383;DHT22;11359;45.802;13.530;2023-02-05T05:32:12;11.10;30.00
22383;DHT22;11359;45.802;13.530;2023-02-05T05:34:38;11.10;30.00
22383;DHT22;11359;45.802;13.530;2023-02-05T05:37:03;11.10;30.00
22383;DHT22;11359;45.802;13.530;2023-02-05T05:39:29;11.10;30.00
22383;DHT22;11359;45.802;13.530;2023-02-05T05:42:14;11.10;30.00
22383;DHT22;11359;45.802;13.530;2023-02-05T05:44:58;11.10;30.00
22383;DHT22;11359;45.802;13.530;2023-02-05T05:47:23;11.20;29.90
22383;DHT22;11359;45.802;13.530;2023-02-05T05:49:49;11.20;29.90
22383;DHT22;11359;45.802;13.530;2023-02-05T05:52:14;11.10;29.80
22383;DHT22;11359;45.802;13.530;2023-02-05T05:54:40;11.20;29.80
22383;DHT22;11359;45.802;13.530;2023-02-05T05:57:06;11.20;29.80
22383;DHT22;11359;45.802;13.530;2023-02-05T05:59:32;11.20;29.80
22383;DHT22;11359;45.802;13.530;2023-02-05T06:02:00;11.30;29.80
22383;DHT22;11359;45.802;13.530;2023-02-05T06:04:26;11.30;29.90
22383;DHT22;11359;45.802;13.530;2023-02-05T06:06:52;11.30;29.90
22383;DHT22;11359;45.802;13.530;2023-02-05T06:09:18;11.40;29.90
22383;DHT22;11359;45.802;13.530;2023-02-05T06:11:48;11.50;29.90
22383;DHT22;11359;45.802;13.530;2023-02-05T06:14:14;11.50;29.90
22383;DHT22;11359;45.802;13.530;2023-02-05T06:16:40;11.60;29.90
22383;DHT22;11359;45.802;13.530;2023-02-05T06:19:06;11.70;29.90
22383;DHT22;11359;45.802;13.530;2023-02-05T06:21:32;11.80;29.90
22383;DHT22;11359;45.802;13.530;2023-02-05T06:23:57;11.80;29.90
22383;DHT22;11359;45.802;13.530;2023-02-05T06:26:23;11.90;29.90
22383;DHT22;11359;45.802;13.530;2023-02-05T06:28:48;12.00;29.90
22383;DHT22;11359;45.802;13.530;2023-02-05T06:31:14;12.10;29.80
22383;DHT22;11359;45.802;13.530;2023-02-05T06:33:41;12.20;29.80
22383;DHT22;11359;45.802;13.530;2023-02-05T06:36:07;12.30;29.70
22383;DHT22;11359;45.802;13.530;2023-02-05T06:38:33;12.40;29.70
22383;DHT22;11359;45.802;13.530;2023-02-05T06:40:58;12.50;29.70
22383;DHT22;11359;45.802;13.530;2023-02-05T06:43:24;12.60;29.60
22383;DHT22;11359;45.802;13.530;2023-02-05T06:45:50;12.60;29.50
22383;DHT22;11359;45.802;13.530;2023-02-05T06:48:15;12.70;29.50
22383;DHT22;11359;45.802;13.530;2023-02-05T06:50:42;12.80;29.40
22383;DHT22;11359;45.802;13.530;2023-02-05T06:53:08;12.90;29.40
22383;DHT22;11359;45.802;13.530;2023-02-05T06:55:33;12.90;29.30
22383;DHT22;11359;45.802;13.530;2023-02-05T06:57:59;13.00;29.20
22383;DHT22;11359;45.802;13.530;2023-02-05T07:00:25;13.10;29.20
22383;DHT22;11359;45.802;13.530;2023-02-05T07:02:51;13.20;29.20
22383;DHT22;11359;45.802;13.530;2023-02-05T07:05:17;13.30;29.10
22383;DHT22;11359;45.802;13.530;2023-02-05T07:07:43;13.30;29.10
22383;DHT22;11359;45.802;13.530;2023-02-05T07:10:09;13.30;29.00
22383;DHT22;11359;45.802;13.530;2023-02-05T07:12:35;13.40;29.00
22383;DHT22;11359;45.802;13.530;2023-02-05T07:15:01;13.50;29.50
22383;DHT22;11359;45.802;13.530;2023-02-05T07:17:26;13.60;28.90
22383;DHT22;11359;45.802;13.530;2023-02-05T07:19:52;13.60;28.80
22383;DHT22;11359;45.802;13.530;2023-02-05T07:22:18;13.70;28.80
22383;DHT22;11359;45.802;13.530;2023-02-05T07:24:43;13.80;28.90
22383;DHT22;11359;45.802;13.530;2023-02-05T07:27:09;13.80;28.80
22383;DHT22;11359;45.802;13.530;2023-02-05T07:29:35;13.90;28.80
22383;DHT22;11359;45.802;13.530;2023-02-05T07:32:00;14.00;28.80
22383;DHT22;11359;45.802;13.530;2023-02-05T07:34:26;14.00;28.80
22383;DHT22;11359;45.802;13.530;2023-02-05T07:36:52;14.10;28.80
22383;DHT22;11359;45.802;13.530;2023-02-05T07:39:18;14.20;28.80
22383;DHT22;11359;45.802;13.530;2023-02-05T07:41:44;14.30;28.70
22383;DHT22;11359;45.802;13.530;2023-02-05T07:44:10;14.40;28.70
22383;DHT22;11359;45.802;13.530;2023-02-05T07:46:36;14.40;28.60
22383;DHT22;11359;45.802;13.530;2023-02-05T07:49:01;14.50;28.60
22383;DHT22;11359;45.802;13.530;2023-02-05T07:51:27;14.60;28.60
22383;DHT22;11359;45.802;13.530;2023-02-05T07:53:53;14.70;28.50
22383;DHT22;11359;45.802;13.530;2023-02-05T07:56:19;14.80;28.50
22383;DHT22;11359;45.802;13.530;2023-02-05T07:58:50;14.80;28.40
22383;DHT22;11359;45.802;13.530;2023-02-05T08:01:16;14.90;28.30
22383;DHT22;11359;45.802;13.530;2023-02-05T08:03:41;15.00;28.40
22383;DHT22;11359;45.802;13.530;2023-02-05T08:06:10;15.00;28.30
22383;DHT22;11359;45.802;13.530;2023-02-05T08:08:36;15.10;28.30
22383;DHT22;11359;45.802;13.530;2023-02-05T08:11:03;15.10;28.20
22383;DHT22;11359;45.802;13.530;2023-02-05T08:13:30;15.20;28.20
22383;DHT22;11359;45.802;13.530;2023-02-05T08:15:56;15.30;28.20
22383;DHT22;11359;45.802;13.530;2023-02-05T08:18:22;15.30;28.20
22383;DHT22;11359;45.802;13.530;2023-02-05T08:20:51;15.40;28.20
22383;DHT22;11359;45.802;13.530;2023-02-05T08:23:18;15.40;28.10
22383;DHT22;11359;45.802;13.530;2023-02-05T08:25:43;15.50;28.10
22383;DHT22;11359;45.802;13.530;2023-02-05T08:28:09;15.50;28.00
22383;DHT22;11359;45.802;13.530;2023-02-05T08:30:34;15.60;28.00
22383;DHT22;11359;45.802;13.530;2023-02-05T08:33:00;15.60;27.90
22383;DHT22;11359;45.802;13.530;2023-02-05T08:35:26;15.60;27.80
22383;DHT22;11359;45.802;13.530;2023-02-05T08:37:53;15.70;27.80
22383;DHT22;11359;45.802;13.530;2023-02-05T08:40:19;15.70;27.80
22383;DHT22;11359;45.802;13.530;2023-02-05T08:42:45;15.80;27.70
22383;DHT22;11359;45.802;13.530;2023-02-05T08:45:12;15.80;27.70
22383;DHT22;11359;45.802;13.530;2023-02-05T08:47:38;15.80;27.60
22383;DHT22;11359;45.802;13.530;2023-02-05T08:50:04;15.80;27.60
22383;DHT22;11359;45.802;13.530;2023-02-05T08:52:30;15.80;27.50
22383;DHT22;11359;45.802;13.530;2023-02-05T08:54:56;15.80;27.50
22383;DHT22;11359;45.802;13.530;2023-02-05T08:57:28;15.80;27.40
22383;DHT22;11359;45.802;13.530;2023-02-05T08:59:57;15.80;27.40
22383;DHT22;11359;45.802;13.530;2023-02-05T09:02:24;15.80;27.50
22383;DHT22;11359;45.802;13.530;2023-02-05T09:04:51;15.80;27.50
22383;DHT22;11359;45.802;13.530;2023-02-05T09:07:17;15.80;28.00
22383;DHT22;11359;45.802;13.530;2023-02-05T09:09:43;15.80;27.50
22383;DHT22;11359;45.802;13.530;2023-02-05T09:12:09;15.90;27.50
22383;DHT22;11359;45.802;13.530;2023-02-05T09:14:38;15.90;27.50
22383;DHT22;11359;45.802;13.530;2023-02-05T09:17:06;15.90;27.50
22383;DHT22;11359;45.802;13.530;2023-02-05T09:19:39;15.90;27.50
22383;DHT22;11359;45.802;13.530;2023-02-05T09:22:06;15.90;27.60
22383;DHT22;11359;45.802;13.530;2023-02-05T09:24:33;16.00;27.50
22383;DHT22;11359;45.802;13.530;2023-02-05T09:26:59;16.00;27.50
22383;DHT22;11359;45.802;13.530;2023-02-05T09:29:26;16.00;27.60
22383;DHT22;11359;45.802;13.530;2023-02-05T09:31:53;16.00;27.60
22383;DHT22;11359;45.802;13.530;2023-02-05T09:34:18;16.00;27.50
22383;DHT22;11359;45.802;13.530;2023-02-05T09:36:44;16.00;27.50
22383;DHT22;11359;45.802;13.530;2023-02-05T09:39:09;16.00;27.50
22383;DHT22;11359;45.802;13.530;2023-02-05T09:49:32;16.00;27.40
22383;DHT22;11359;45.802;13.530;2023-02-05T09:52:02;16.00;27.50
22383;DHT22;11359;45.802;13.530;2023-02-05T09:54:32;16.00;27.50
22383;DHT22;11359;45.802;13.530;2023-02-05T09:57:04;15.90;27.50
22383;DHT22;11359;45.802;13.530;2023-02-05T09:59:32;15.90;27.50
22383;DHT22;11359;45.802;13.530;2023-02-05T10:02:01;15.90;27.50
22383;DHT22;11359;45.802;13.530;2023-02-05T10:04:27;15.90;27.50
22383;DHT22;11359;45.802;13.530;2023-02-05T10:10:09;15.90;27.60
22383;DHT22;11359;45.802;13.530;2023-02-05T10:12:56;15.80;27.50
22383;DHT22;11359;45.802;13.530;2023-02-05T10:18:22;15.80;27.50
22383;DHT22;11359;45.802;13.530;2023-02-05T10:21:28;15.70;27.40
22383;DHT22;11359;45.802;13.530;2023-02-05T10:34:36;15.50;27.50
22383;DHT22;11359;45.802;13.530;2023-02-05T10:37:20;15.50;27.40
22383;DHT22;11359;45.802;13.530;2023-02-05T10:39:47;15.40;27.40
22383;DHT22;11359;45.802;13.530;2023-02-05T10:42:31;15.40;27.50
22383;DHT22;11359;45.802;13.530;2023-02-05T10:45:16;15.40;27.70
22383;DHT22;11359;45.802;13.530;2023-02-05T10:53:23;15.40;27.80
22383;DHT22;11359;45.802;13.530;2023-02-05T10:55:49;15.30;27.80
22383;DHT22;11359;45.802;13.530;2023-02-05T11:00:57;15.30;27.90
22383;DHT22;11359;45.802;13.530;2023-02-05T11:03:24;15.30;27.90
22383;DHT22;11359;45.802;13.530;2023-02-05T11:05:50;15.30;28.00
22383;DHT22;11359;45.802;13.530;2023-02-05T11:11:02;15.40;28.10
22383;DHT22;11359;45.802;13.530;2023-02-05T11:13:29;15.40;28.10
22383;DHT22;11359;45.802;13.530;2023-02-05T11:16:04;15.40;28.10
22383;DHT22;11359;45.802;13.530;2023-02-05T11:18:40;15.40;28.10
22383;DHT22;11359;45.802;13.530;2023-02-05T11:21:07;15.50;28.10
22383;DHT22;11359;45.802;13.530;2023-02-05T11:23:35;15.40;28.00
22383;DHT22;11359;45.802;13.530;2023-02-05T11:26:19;15.40;28.10
22383;DHT22;11359;45.802;13.530;2023-02-05T11:28:46;15.40;28.10
22383;DHT22;11359;45.802;13.530;2023-02-05T11:33:46;15.40;28.10
22383;DHT22;11359;45.802;13.530;2023-02-05T11:36:21;15.40;28.10
22383;DHT22;11359;45.802;13.530;2023-02-05T11:41:31;15.50;28.20
22383;DHT22;11359;45.802;13.530;2023-02-05T11:44:34;15.50;28.10
22383;DHT22;11359;45.802;13.530;2023-02-05T11:47:01;15.50;28.00
22383;DHT22;11359;45.802;13.530;2023-02-05T11:49:38;15.50;28.00
22383;DHT22;11359;45.802;13.530;2023-02-05T11:52:25;15.50;28.00
22383;DHT22;11359;45.802;13.530;2023-02-05T11:54:53;15.50;28.00
22383;DHT22;11359;45.802;13.530;2023-02-05T12:07:53;15.60;28.10
22383;DHT22;11359;45.802;13.530;2023-02-05T12:27:48;16.20;28.30
22383;DHT22;11359;45.802;13.530;2023-02-05T12:38:52;16.50;28.20
22383;DHT22;11359;45.802;13.530;2023-02-05T12:43:47;16.60;28.20
22383;DHT22;11359;45.802;13.530;2023-02-05T12:52:09;16.80;28.20
22383;DHT22;11359;45.802;13.530;2023-02-05T12:57:44;16.90;28.00
22383;DHT22;11359;45.802;13.530;2023-02-05T13:00:15;17.00;28.00
22383;DHT22;11359;45.802;13.530;2023-02-05T13:05:49;17.10;27.80
22383;DHT22;11359;45.802;13.530;2023-02-05T13:13:24;17.20;27.80
22383;DHT22;11359;45.802;13.530;2023-02-05T13:16:15;17.20;27.80
22383;DHT22;11359;45.802;13.530;2023-02-05T13:18:52;17.30;27.80
22383;DHT22;11359;45.802;13.530;2023-02-05T13:21:19;17.30;27.80
22383;DHT22;11359;45.802;13.530;2023-02-05T13:30:32;17.50;27.70
22383;DHT22;11359;45.802;13.530;2023-02-05T13:33:03;17.50;27.70
22383;DHT22;11359;45.802;13.530;2023-02-05T13:35:48;17.50;27.70
22383;DHT22;11359;45.802;13.530;2023-02-05T13:43:47;17.70;27.50
22383;DHT22;11359;45.802;13.530;2023-02-05T13:46:18;17.70;27.50
22383;DHT22;11359;45.802;13.530;2023-02-05T13:48:57;17.80;27.40
22383;DHT22;11359;45.802;13.530;2023-02-05T14:00:14;17.70;26.80
22383;DHT22;11359;45.802;13.530;2023-02-05T14:02:44;17.70;26.80
22383;DHT22;11359;45.802;13.530;2023-02-05T14:05:11;17.70;26.70
22383;DHT22;11359;45.802;13.530;2023-02-05T14:07:48;17.60;26.70
22383;DHT22;11359;45.802;13.530;2023-02-05T14:10:31;17.60;26.70
22383;DHT22;11359;45.802;13.530;2023-02-05T14:15:41;17.60;26.70
22383;DHT22;11359;45.802;13.530;2023-02-05T14:18:13;17.60;26.70
22383;DHT22;11359;45.802;13.530;2023-02-05T14:20:57;17.60;26.70
22383;DHT22;11359;45.802;13.530;2023-02-05T14:26:16;17.60;26.70
22383;DHT22;11359;45.802;13.530;2023-02-05T14:28:44;17.60;26.70
22383;DHT22;11359;45.802;13.530;2023-02-05T14:31:47;17.60;26.70
22383;DHT22;11359;45.802;13.530;2023-02-05T14:36:58;17.60;26.70
22383;DHT22;11359;45.802;13.530;2023-02-05T14:39:30;17.70;26.70
22383;DHT22;11359;45.802;13.530;2023-02-05T14:42:04;17.70;26.70
22383;DHT22;11359;45.802;13.530;2023-02-05T14:44:39;17.70;26.50
22383;DHT22;11359;45.802;13.530;2023-02-05T14:47:26;17.70;26.40
22383;DHT22;11359;45.802;13.530;2023-02-05T14:50:26;17.70;26.90
22383;DHT22;11359;45.802;13.530;2023-02-05T14:53:01;17.70;26.30
22383;DHT22;11359;45.802;13.530;2023-02-05T14:55:35;17.70;26.30
22383;DHT22;11359;45.802;13.530;2023-02-05T14:58:07;17.70;26.30
22383;DHT22;11359;45.802;13.530;2023-02-05T15:00:45;17.70;26.30
22383;DHT22;11359;45.802;13.530;2023-02-05T15:03:24;17.70;26.30
22383;DHT22;11359;45.802;13.530;2023-02-05T15:05:55;17.70;26.40
22383;DHT22;11359;45.802;13.530;2023-02-05T15:19:42;17.70;26.30
22383;DHT22;11359;45.802;13.530;2023-02-05T15:22:43;17.80;26.30
22383;DHT22;11359;45.802;13.530;2023-02-05T15:27:52;17.80;26.30
22383;DHT22;11359;45.802;13.530;2023-02-05T15:30:23;17.70;26.20
22383;DHT22;11359;45.802;13.530;2023-02-05T15:33:01;17.70;26.80
22383;DHT22;11359;45.802;13.530;2023-02-05T15:35:29;17.80;26.40
22383;DHT22;11359;45.802;13.530;2023-02-05T15:38:06;17.80;26.40
22383;DHT22;11359;45.802;13.530;2023-02-05T15:40:39;17.80;26.40
22383;DHT22;11359;45.802;13.530;2023-02-05T15:43:21;17.80;26.30
22383;DHT22;11359;45.802;13.530;2023-02-05T15:45:49;17.80;26.40
22383;DHT22;11359;45.802;13.530;2023-02-05T15:48:22;17.80;26.40
22383;DHT22;11359;45.802;13.530;2023-02-05T15:50:52;17.90;26.50
22383;DHT22;11359;45.802;13.530;2023-02-05T15:53:35;17.80;26.50
22383;DHT22;11359;45.802;13.530;2023-02-05T15:56:25;17.90;26.50
22383;DHT22;11359;45.802;13.530;2023-02-05T15:59:14;17.90;26.50
22383;DHT22;11359;45.802;13.530;2023-02-05T16:01:42;17.90;26.50
22383;DHT22;11359;45.802;13.530;2023-02-05T16:04:36;17.90;26.40
22383;DHT22;11359;45.802;13.530;2023-02-05T16:07:19;17.90;26.20
22383;DHT22;11359;45.802;13.530;2023-02-05T16:09:48;17.90;26.20
22383;DHT22;11359;45.802;13.530;2023-02-05T16:12:15;17.90;26.80
22383;DHT22;11359;45.802;13.530;2023-02-05T16:14:41;17.90;26.40
22383;DHT22;11359;45.802;13.530;2023-02-05T16:17:18;17.90;26.50
22383;DHT22;11359;45.802;13.530;2023-02-05T16:19:52;17.90;26.50
22383;DHT22;11359;45.802;13.530;2023-02-05T16:22:52;17.90;26.50
22383;DHT22;11359;45.802;13.530;2023-02-05T16:27:55;17.90;26.50
22383;DHT22;11359;45.802;13.530;2023-02-05T16:30:36;18.00;26.60
22383;DHT22;11359;45.802;13.530;2023-02-05T16:33:05;18.00;26.60
22383;DHT22;11359;45.802;13.530;2023-02-05T16:35:38;17.90;26.60
22383;DHT22;11359;45.802;13.530;2023-02-05T16:38:10;18.00;26.70
22383;DHT22;11359;45.802;13.530;2023-02-05T16:40:40;18.00;26.70
22383;DHT22;11359;45.802;13.530;2023-02-05T16:48:41;18.00;26.70
22383;DHT22;11359;45.802;13.530;2023-02-05T16:56:38;18.00;26.50
22383;DHT22;11359;45.802;13.530;2023-02-05T16:59:17;18.00;26.50
22383;DHT22;11359;45.802;13.530;2023-02-05T17:01:44;18.00;26.40
22383;DHT22;11359;45.802;13.530;2023-02-05T17:04:35;18.00;26.40
22383;DHT22;11359;45.802;13.530;2023-02-05T17:07:04;17.90;26.30
22383;DHT22;11359;45.802;13.530;2023-02-05T17:09:36;17.90;26.30
22383;DHT22;11359;45.802;13.530;2023-02-05T17:17:52;18.00;26.20
22383;DHT22;11359;45.802;13.530;2023-02-05T17:20:20;18.00;26.10
22383;DHT22;11359;45.802;13.530;2023-02-05T17:28:06;18.00;25.80
22383;DHT22;11359;45.802;13.530;2023-02-05T17:30:32;18.00;25.80
22383;DHT22;11359;45.802;13.530;2023-02-05T17:32:58;18.00;25.90
22383;DHT22;11359;45.802;13.530;2023-02-05T17:35:24;18.00;25.80
22383;DHT22;11359;45.802;13.530;2023-02-05T17:37:51;18.00;25.80
22383;DHT22;11359;45.802;13.530;2023-02-05T17:40:17;18.00;25.70
22383;DHT22;11359;45.802;13.530;2023-02-05T17:42:44;18.00;25.70
22383;DHT22;11359;45.802;13.530;2023-02-05T17:45:20;17.90;25.50
22383;DHT22;11359;45.802;13.530;2023-02-05T17:47:47;17.90;25.40
22383;DHT22;11359;45.802;13.530;2023-02-05T17:50:13;17.90;25.40
22383;DHT22;11359;45.802;13.530;2023-02-05T17:52:39;17.90;25.30
22383;DHT22;11359;45.802;13.530;2023-02-05T17:55:05;17.90;25.20
22383;DHT22;11359;45.802;13.530;2023-02-05T17:57:31;17.80;25.20
22383;DHT22;11359;45.802;13.530;2023-02-05T17:59:59;17.80;25.20
22383;DHT22;11359;45.802;13.530;2023-02-05T18:02:25;17.80;25.30
22383;DHT22;11359;45.802;13.530;2023-02-05T18:04:51;17.80;25.30
22383;DHT22;11359;45.802;13.530;2023-02-05T18:10:30;17.70;25.20
22383;DHT22;11359;45.802;13.530;2023-02-05T18:12:56;17.70;25.00
22383;DHT22;11359;45.802;13.530;2023-02-05T18:15:24;17.70;25.10
22383;DHT22;11359;45.802;13.530;2023-02-05T18:17:51;17.70;25.10
22383;DHT22;11359;45.802;13.530;2023-02-05T18:20:18;17.70;25.70
22383;DHT22;11359;45.802;13.530;2023-02-05T18:22:47;17.70;25.20
22383;DHT22;11359;45.802;13.530;2023-02-05T18:25:14;17.70;25.20
22383;DHT22;11359;45.802;13.530;2023-02-05T18:27:40;17.70;25.20
22383;DHT22;11359;45.802;13.530;2023-02-05T18:30:06;17.70;25.10
22383;DHT22;11359;45.802;13.530;2023-02-05T18:32:32;17.70;25.00
22383;DHT22;11359;45.802;13.530;2023-02-05T18:34:58;17.70;24.90
22383;DHT22;11359;45.802;13.530;2023-02-05T18:37:24;17.70;24.90
22383;DHT22;11359;45.802;13.530;2023-02-05T18:39:49;17.70;24.80
22383;DHT22;11359;45.802;13.530;2023-02-05T18:42:15;17.70;24.90
22383;DHT22;11359;45.802;13.530;2023-02-05T18:44:41;17.60;25.30
22383;DHT22;11359;45.802;13.530;2023-02-05T18:47:07;17.60;24.80